Time,TemperatureF,DewpointF,PressureIn,WindDirection,WindDirectionDegrees,WindSpeedMPH,WindSpeedGustMPH,Humidity,HourlyPrecipIn,Conditions,Clouds,dailyrainin,SoftwareType,DateUTC
2014-04-19 00:14:00,57.2,40.7,29.87,ESE,117,0.0,0.0,54,0.00,,,0.00,WUHU216DAVISVP2,2014-04-19 07:14:00,
2014-04-19 00:34:00,56.5,40.1,29.88,ESE,117,0.0,0.0,54,0.00,,,0.00,WUHU216DAVISVP2,2014-04-19 07:34:00,
2014-04-19 00:54:00,57.5,41.0,29.87,ESE,115,2.0,3.0,54,0.00,,,0.00,WUHU216DAVISVP2,2014-04-19 07:54:00,
2014-04-19 01:14:00,59.5,40.8,29.87,NNW,331,3.0,5.0,50,0.00,,,0.00,WUHU216DAVISVP2,2014-04-19 08:14:00,
2014-04-19 01:35:00,59.5,40.8,29.87,NNW,330,0.0,4.0,50,0.00,,,0.00,WUHU216DAVISVP2,2014-04-19 08:35:00,
2014-04-19 01:55:00,58.8,41.2,29.86,NNW,331,1.0,3.0,52,0.00,,,0.00,WUHU216DAVISVP2,2014-04-19 08:55:00,
2014-04-19 02:15:00,57.7,41.2,29.86,NE,48,2.0,3.0,54,0.00,,,0.00,WUHU216DAVISVP2,2014-04-19 09:15:00,
2014-04-19 02:35:00,56.7,40.8,29.85,ESE,102,2.0,6.0,55,0.00,,,0.00,WUHU216DAVISVP2,2014-04-19 09:35:00,
2014-04-19 02:55:00,55.8,40.3,29.85,ESE,102,0.0,3.0,56,0.00,,,0.00,WUHU216DAVISVP2,2014-04-19 09:55:00,
2014-04-19 03:15:00,55.0,40.6,29.85,ESE,102,0.0,0.0,58,0.00,,,0.00,WUHU216DAVISVP2,2014-04-19 10:15:00,
2014-04-19 03:35:00,54.4,40.0,29.86,ESE,102,1.0,1.0,58,0.00,,,0.00,WUHU216DAVISVP2,2014-04-19 10:35:00,
2014-04-19 03:55:00,54.7,40.2,29.86,ESE,102,0.0,3.0,58,0.00,,,0.00,WUHU216DAVISVP2,2014-04-19 10:55:00,
2014-04-19 04:15:00,55.2,40.8,29.86,NNW,345,3.0,5.0,58,0.00,,,0.00,WUHU216DAVISVP2,2014-04-19 11:15:00,
2014-04-19 04:36:00,56.2,40.3,29.86,NW,315,0.0,5.0,55,0.00,,,0.00,WUHU216DAVISVP2,2014-04-19 11:36:00,
2014-04-19 04:56:00,56.3,41.3,29.86,NW,313,1.0,4.0,57,0.00,,,0.00,WUHU216DAVISVP2,2014-04-19 11:56:00,
2014-04-19 05:16:00,55.3,40.4,29.86,NW,313,0.0,3.0,57,0.00,,,0.00,WUHU216DAVISVP2,2014-04-19 12:16:00,
2014-04-19 05:36:00,55.4,41.0,29.87,NW,313,0.0,0.0,58,0.00,,,0.00,WUHU216DAVISVP2,2014-04-19 12:36:00,
2014-04-19 05:56:00,56.1,40.7,29.88,NNW,342,1.0,3.0,56,0.00,,,0.00,WUHU216DAVISVP2,2014-04-19 12:56:00,
2014-04-19 06:16:00,56.4,41.0,29.89,NNW,342,0.0,3.0,56,0.00,,,0.00,WUHU216DAVISVP2,2014-04-19 13:16:00,
2014-04-19 06:36:00,57.0,41.5,29.90,NW,312,0.0,3.0,56,0.00,,,0.00,WUHU216DAVISVP2,2014-04-19 13:36:00,
2014-04-19 06:56:00,57.6,41.1,29.91,East,86,2.0,3.0,54,0.00,,,0.00,WUHU216DAVISVP2,2014-04-19 13:56:00,
2014-04-19 07:17:00,59.5,41.9,29.92,East,86,0.0,3.0,52,0.00,,,0.00,WUHU216DAVISVP2,2014-04-19 14:17:00,
2014-04-19 07:37:00,64.5,41.4,29.92,East,86,0.0,1.0,43,0.00,,,0.00,WUHU216DAVISVP2,2014-04-19 14:37:00,
2014-04-19 07:57:00,66.5,42.6,29.92,SSW,196,0.0,3.0,42,0.00,,,0.00,WUHU216DAVISVP2,2014-04-19 14:57:00,
2014-04-19 08:17:00,67.9,41.9,29.92,SSW,195,1.0,3.0,39,0.00,,,0.00,WUHU216DAVISVP2,2014-04-19 15:17:00,
2014-04-19 08:37:00,70.4,43.4,29.92,SW,223,3.0,7.0,38,0.00,,,0.00,WUHU216DAVISVP2,2014-04-19 15:37:00,
2014-04-19 08:57:00,72.6,44.7,29.93,WSW,257,9.0,13.0,37,0.00,,,0.00,WUHU216DAVISVP2,2014-04-19 15:57:00,
2014-04-19 09:17:00,70.4,44.1,29.94,West,267,3.0,15.0,39,0.00,,,0.00,WUHU216DAVISVP2,2014-04-19 16:17:00,
2014-04-19 09:37:00,71.1,41.9,29.95,West,260,8.0,16.0,35,0.00,,,0.00,WUHU216DAVISVP2,2014-04-19 16:37:00,
2014-04-19 09:57:00,71.4,43.0,29.95,WSW,256,10.0,17.0,36,0.00,,,0.00,WUHU216DAVISVP2,2014-04-19 16:57:00,
2014-04-19 10:18:00,72.7,41.0,29.94,WSW,244,7.0,22.0,32,0.00,,,0.00,WUHU216DAVISVP2,2014-04-19 17:18:00,
2014-04-19 10:38:00,74.2,41.6,29.94,NW,323,9.0,23.0,31,0.00,,,0.00,WUHU216DAVISVP2,2014-04-19 17:38:00,
2014-04-19 10:58:00,74.3,42.4,29.94,SSW,211,12.0,24.0,32,0.00,,,0.00,WUHU216DAVISVP2,2014-04-19 17:58:00,
2014-04-19 11:18:00,74.4,42.6,29.94,WSW,248,8.0,23.0,32,0.00,,,0.00,WUHU216DAVISVP2,2014-04-19 18:18:00,
2014-04-19 11:38:00,74.3,42.4,29.93,WSW,241,8.0,18.0,32,0.00,,,0.00,WUHU216DAVISVP2,2014-04-19 18:38:00,
2014-04-19 11:58:00,75.2,42.5,29.93,WSW,249,7.0,17.0,31,0.00,,,0.00,WUHU216DAVISVP2,2014-04-19 18:58:00,
2014-04-19 12:18:00,74.9,41.2,29.92,West,281,4.0,15.0,30,0.00,,,0.00,WUHU216DAVISVP2,2014-04-19 19:18:00,
2014-04-19 12:38:00,76.7,42.0,29.92,WSW,252,0.0,14.0,29,0.00,,,0.00,WUHU216DAVISVP2,2014-04-19 19:38:00,
2014-04-19 12:59:00,77.8,41.0,29.91,SSE,167,5.0,10.0,27,0.00,,,0.00,WUHU216DAVISVP2,2014-04-19 19:59:00,
2014-04-19 13:19:00,78.4,40.6,29.91,SW,215,3.0,7.0,26,0.00,,,0.00,WUHU216DAVISVP2,2014-04-19 20:19:00,
2014-04-19 13:39:00,79.3,40.3,29.90,SSE,166,6.0,10.0,25,0.00,,,0.00,WUHU216DAVISVP2,2014-04-19 20:39:00,
2014-04-19 13:59:00,82.2,39.5,29.88,SW,219,5.0,10.0,22,0.00,,,0.00,WUHU216DAVISVP2,2014-04-19 20:59:00,
2014-04-19 14:19:00,82.2,39.5,29.87,NW,314,4.0,15.0,22,0.00,,,0.00,WUHU216DAVISVP2,2014-04-19 21:19:00,
2014-04-19 14:39:00,82.0,38.2,29.87,SW,218,3.0,12.0,21,0.00,,,0.00,WUHU216DAVISVP2,2014-04-19 21:39:00,
2014-04-19 14:59:00,82.3,34.5,29.87,WSW,252,1.0,15.0,18,0.00,,,0.00,WUHU216DAVISVP2,2014-04-19 21:59:00,
2014-04-19 15:19:00,83.5,36.9,29.86,SW,215,6.0,16.0,19,0.00,,,0.00,WUHU216DAVISVP2,2014-04-19 22:19:00,
2014-04-19 15:39:00,83.4,35.4,29.86,WNW,284,6.0,16.0,18,0.00,,,0.00,WUHU216DAVISVP2,2014-04-19 22:39:00,
2014-04-19 16:00:00,82.6,34.8,29.85,WSW,246,5.0,14.0,18,0.00,,,0.00,WUHU216DAVISVP2,2014-04-19 23:00:00,
2014-04-19 16:20:00,82.5,33.3,29.85,West,261,10.0,14.0,17,0.00,,,0.00,WUHU216DAVISVP2,2014-04-19 23:20:00,
2014-04-19 16:40:00,82.1,34.4,29.85,West,259,4.0,14.0,18,0.00,,,0.00,WUHU216DAVISVP2,2014-04-19 23:40:00,